sensor_id;sensor_type;location;lat;lon;timestamp;pressure;altitude;pressure_sealevel;temperature;humidity
62418;BME280;48456;54.242;10.280;2022-12-07T00:00:55;100927.34;;;0.51;100.00
62418;BME280;48456;54.242;10.280;2022-12-07T00:03:21;100920.63;;;0.56;100.00
62418;BME280;48456;54.242;10.280;2022-12-07T00:05:48;100917.19;;;0.57;100.00
62418;BME280;48456;54.242;10.280;2022-12-07T00:08:14;100915.41;;;0.56;100.00
62418;BME280;48456;54.242;10.280;2022-12-07T00:10:40;100905.06;;;0.58;100.00
62418;BME280;48456;54.242;10.280;2022-12-07T00:13:07;100905.06;;;0.58;100.00
62418;BME280;48456;54.242;10.280;2022-12-07T00:15:33;100902.41;;;0.56;100.00
62418;BME280;48456;54.242;10.280;2022-12-07T00:18:00;100897.06;;;0.53;100.00
62418;BME280;48456;54.242;10.280;2022-12-07T00:20:27;100893.41;;;0.48;100.00
62418;BME280;48456;54.242;10.280;2022-12-07T00:22:53;100887.09;;;0.41;100.00
62418;BME280;48456;54.242;10.280;2022-12-07T00:25:19;100887.72;;;0.35;100.00
62418;BME280;48456;54.242;10.280;2022-12-07T00:27:45;100895.41;;;0.32;100.00
62418;BME280;48456;54.242;10.280;2022-12-07T00:30:12;100883.09;;;0.28;100.00
62418;BME280;48456;54.242;10.280;2022-12-07T00:32:38;100884.72;;;0.24;100.00
62418;BME280;48456;54.242;10.280;2022-12-07T00:35:04;100884.56;;;0.21;100.00
62418;BME280;48456;54.242;10.280;2022-12-07T00:37:31;100880.28;;;0.22;100.00
62418;BME280;48456;54.242;10.280;2022-12-07T00:39:57;100880.28;;;0.22;100.00
62418;BME280;48456;54.242;10.280;2022-12-07T00:42:23;100873.47;;;0.25;100.00
62418;BME280;48456;54.242;10.280;2022-12-07T00:44:50;100881.41;;;0.29;100.00
62418;BME280;48456;54.242;10.280;2022-12-07T00:47:16;100874.59;;;0.32;100.00
62418;BME280;48456;54.242;10.280;2022-12-07T00:49:42;100865.16;;;0.36;100.00
62418;BME280;48456;54.242;10.280;2022-12-07T00:52:09;100864.31;;;0.35;100.00
62418;BME280;48456;54.242;10.280;2022-12-07T00:54:35;100852.00;;;0.31;100.00
62418;BME280;48456;54.242;10.280;2022-12-07T00:57:01;100847.44;;;0.25;100.00
62418;BME280;48456;54.242;10.280;2022-12-07T00:59:27;100852.47;;;0.21;100.00
62418;BME280;48456;54.242;10.280;2022-12-07T01:01:54;100853.94;;;0.14;100.00
62418;BME280;48456;54.242;10.280;2022-12-07T01:04:20;100855.59;;;0.12;100.00
62418;BME280;48456;54.242;10.280;2022-12-07T01:06:46;100854.84;;;0.15;100.00
62418;BME280;48456;54.242;10.280;2022-12-07T01:09:13;100845.41;;;0.18;100.00
62418;BME280;48456;54.242;10.280;2022-12-07T01:11:39;100859.56;;;0.25;100.00
62418;BME280;48456;54.242;10.280;2022-12-07T01:14:05;100852.78;;;0.29;100.00
62418;BME280;48456;54.242;10.280;2022-12-07T01:16:32;100854.66;;;0.33;100.00
62418;BME280;48456;54.242;10.280;2022-12-07T01:18:59;100850.47;;;0.36;100.00
62418;BME280;48456;54.242;10.280;2022-12-07T01:21:27;100847.16;;;0.41;100.00
62418;BME280;48456;54.242;10.280;2022-12-07T01:23:54;100856.91;;;0.46;100.00
62418;BME280;48456;54.242;10.280;2022-12-07T01:26:21;100854.47;;;0.51;100.00
62418;BME280;48456;54.242;10.280;2022-12-07T01:28:47;100855.47;;;0.55;100.00
62418;BME280;48456;54.242;10.280;2022-12-07T01:31:15;100865.00;;;0.54;100.00
62418;BME280;48456;54.242;10.280;2022-12-07T01:33:43;100856.25;;;0.52;100.00
62418;BME280;48456;54.242;10.280;2022-12-07T01:36:15;100859.78;;;0.54;100.00
62418;BME280;48456;54.242;10.280;2022-12-07T01:38:42;100859.84;;;0.56;100.00
62418;BME280;48456;54.242;10.280;2022-12-07T01:41:08;100858.25;;;0.59;100.00
62418;BME280;48456;54.242;10.280;2022-12-07T01:43:35;100860.03;;;0.60;100.00
62418;BME280;48456;54.242;10.280;2022-12-07T01:46:02;100866.22;;;0.64;100.00
62418;BME280;48456;54.242;10.280;2022-12-07T01:48:48;100866.28;;;0.66;100.00
62418;BME280;48456;54.242;10.280;2022-12-07T01:51:15;100862.91;;;0.68;100.00
62418;BME280;48456;54.242;10.280;2022-12-07T01:53:43;100862.00;;;0.68;100.00
62418;BME280;48456;54.242;10.280;2022-12-07T01:56:11;100857.84;;;0.71;100.00
62418;BME280;48456;54.242;10.280;2022-12-07T01:58:40;100857.88;;;0.73;100.00
62418;BME280;48456;54.242;10.280;2022-12-07T02:01:07;100853.59;;;0.75;100.00
62418;BME280;48456;54.242;10.280;2022-12-07T02:03:40;100851.13;;;0.78;100.00
62418;BME280;48456;54.242;10.280;2022-12-07T02:06:07;100845.19;;;0.82;100.00
62418;BME280;48456;54.242;10.280;2022-12-07T02:08:33;100850.53;;;0.85;100.00
62418;BME280;48456;54.242;10.280;2022-12-07T02:11:02;100843.66;;;0.87;100.00
62418;BME280;48456;54.242;10.280;2022-12-07T02:13:33;100843.66;;;0.87;100.00
62418;BME280;48456;54.242;10.280;2022-12-07T02:26:54;100846.25;;;0.87;100.00
62418;BME280;48456;54.242;10.280;2022-12-07T02:32:11;100840.84;;;0.83;100.00
62418;BME280;48456;54.242;10.280;2022-12-07T02:34:44;100842.47;;;0.79;100.00
62418;BME280;48456;54.242;10.280;2022-12-07T02:37:17;100839.75;;;0.76;100.00
62418;BME280;48456;54.242;10.280;2022-12-07T02:39:51;100833.75;;;0.78;100.00
62418;BME280;48456;54.242;10.280;2022-12-07T02:42:23;100839.75;;;0.76;100.00
62418;BME280;48456;54.242;10.280;2022-12-07T02:44:51;100841.50;;;0.75;100.00
62418;BME280;48456;54.242;10.280;2022-12-07T02:47:18;100844.09;;;0.75;100.00
62418;BME280;48456;54.242;10.280;2022-12-07T02:49:47;100847.63;;;0.77;100.00
62418;BME280;48456;54.242;10.280;2022-12-07T02:52:15;100843.25;;;0.76;100.00
62418;BME280;48456;54.242;10.280;2022-12-07T02:54:41;100847.56;;;0.76;100.00
62418;BME280;48456;54.242;10.280;2022-12-07T02:59:58;100851.91;;;0.75;100.00
62418;BME280;48456;54.242;10.280;2022-12-07T03:02:31;100855.31;;;0.74;100.00
62418;BME280;48456;54.242;10.280;2022-12-07T03:07:43;100858.47;;;0.66;100.00
62418;BME280;48456;54.242;10.280;2022-12-07T03:10:34;100864.53;;;0.64;100.00
62418;BME280;48456;54.242;10.280;2022-12-07T03:13:18;100864.47;;;0.63;100.00
62418;BME280;48456;54.242;10.280;2022-12-07T03:15:49;100862.63;;;0.60;100.00
62418;BME280;48456;54.242;10.280;2022-12-07T03:18:20;100867.00;;;0.61;100.00
62418;BME280;48456;54.242;10.280;2022-12-07T03:20:48;100859.00;;;0.57;100.00
62418;BME280;48456;54.242;10.280;2022-12-07T03:23:17;100855.63;;;0.59;100.00
62418;BME280;48456;54.242;10.280;2022-12-07T03:25:49;100856.53;;;0.60;100.00
62418;BME280;48456;54.242;10.280;2022-12-07T03:28:26;100862.63;;;0.60;100.00
62418;BME280;48456;54.242;10.280;2022-12-07T03:30:59;100855.63;;;0.59;100.00
62418;BME280;48456;54.242;10.280;2022-12-07T03:33:29;100851.25;;;0.58;100.00
62418;BME280;48456;54.242;10.280;2022-12-07T03:36:04;100844.28;;;0.57;100.00
62418;BME280;48456;54.242;10.280;2022-12-07T03:38:36;100857.38;;;0.59;100.00
62418;BME280;48456;54.242;10.280;2022-12-07T03:41:08;100854.44;;;0.49;100.00
62418;BME280;48456;54.242;10.280;2022-12-07T03:43:37;100849.16;;;0.48;100.00
62418;BME280;48456;54.242;10.280;2022-12-07T03:48:35;100847.03;;;0.37;100.00
62418;BME280;48456;54.242;10.280;2022-12-07T03:53:46;100853.06;;;0.36;100.00
62418;BME280;48456;54.242;10.280;2022-12-07T03:56:16;100850.47;;;0.36;100.00
62418;BME280;48456;54.242;10.280;2022-12-07T03:58:43;100848.44;;;0.29;100.00
62418;BME280;48456;54.242;10.280;2022-12-07T04:01:09;100846.66;;;0.28;100.00
62418;BME280;48456;54.242;10.280;2022-12-07T04:03:36;100848.94;;;0.19;100.00
62418;BME280;48456;54.242;10.280;2022-12-07T04:06:02;100854.97;;;0.18;100.00
62418;BME280;48456;54.242;10.280;2022-12-07T04:08:29;100846.25;;;0.17;100.00
62418;BME280;48456;54.242;10.280;2022-12-07T04:10:55;100849.63;;;0.15;100.00
62418;BME280;48456;54.242;10.280;2022-12-07T04:13:21;100853.94;;;0.14;100.00
62418;BME280;48456;54.242;10.280;2022-12-07T04:15:47;100849.50;;;0.11;100.00
62418;BME280;48456;54.242;10.280;2022-12-07T04:18:14;100853.00;;;0.12;100.00
62418;BME280;48456;54.242;10.280;2022-12-07T04:20:40;100842.41;;;0.07;100.00
62418;BME280;48456;54.242;10.280;2022-12-07T04:23:07;100852.81;;;0.07;100.00
62418;BME280;48456;54.242;10.280;2022-12-07T04:25:33;100851.25;;;0.11;100.00
62418;BME280;48456;54.242;10.280;2022-12-07T04:27:59;100847.88;;;0.14;100.00
62418;BME280;48456;54.242;10.280;2022-12-07T04:30:26;100858.00;;;0.07;100.00
62418;BME280;48456;54.242;10.280;2022-12-07T04:32:53;100858.06;;;0.09;100.00
62418;BME280;48456;54.242;10.280;2022-12-07T04:35:19;100854.56;;;0.08;100.00
62418;BME280;48456;54.242;10.280;2022-12-07T04:37:45;100846.59;;;0.04;100.00
62418;BME280;48456;54.242;10.280;2022-12-07T04:40:11;100848.22;;;0.00;100.00
62418;BME280;48456;54.242;10.280;2022-12-07T04:42:40;100849.28;;;0.05;100.00
62418;BME280;48456;54.242;10.280;2022-12-07T04:45:06;100854.28;;;0.01;100.00
62418;BME280;48456;54.242;10.280;2022-12-07T04:47:33;100849.84;;;-0.02;100.00
62418;BME280;48456;54.242;10.280;2022-12-07T04:49:59;100857.53;;;-0.05;100.00
62418;BME280;48456;54.242;10.280;2022-12-07T04:52:26;100841.50;;;-0.16;100.00
62418;BME280;48456;54.242;10.280;2022-12-07T04:54:52;100842.19;;;-0.20;100.00
62418;BME280;48456;54.242;10.280;2022-12-07T04:57:18;100853.63;;;-0.17;100.00
62418;BME280;48456;54.242;10.280;2022-12-07T04:59:45;100840.50;;;-0.20;100.00
62418;BME280;48456;54.242;10.280;2022-12-07T05:02:11;100841.31;;;-0.21;100.00
62418;BME280;48456;54.242;10.280;2022-12-07T05:04:38;100839.66;;;-0.19;100.00
62418;BME280;48456;54.242;10.280;2022-12-07T05:07:04;100837.00;;;-0.20;100.00
62418;BME280;48456;54.242;10.280;2022-12-07T05:09:30;100838.66;;;-0.22;100.00
62418;BME280;48456;54.242;10.280;2022-12-07T05:11:56;100836.16;;;-0.19;100.00
62418;BME280;48456;54.242;10.280;2022-12-07T05:14:23;100837.00;;;-0.20;100.00
62418;BME280;48456;54.242;10.280;2022-12-07T05:16:50;100837.81;;;-0.21;100.00
62418;BME280;48456;54.242;10.280;2022-12-07T05:19:17;100832.63;;;-0.21;100.00
62418;BME280;48456;54.242;10.280;2022-12-07T05:21:44;100839.53;;;-0.22;100.00
62418;BME280;48456;54.242;10.280;2022-12-07T05:24:11;100836.13;;;-0.21;100.00
62418;BME280;48456;54.242;10.280;2022-12-07T05:26:38;100833.19;;;-0.29;100.00
62418;BME280;48456;54.242;10.280;2022-12-07T05:29:04;100831.19;;;-0.36;100.00
62418;BME280;48456;54.242;10.280;2022-12-07T05:31:31;100831.00;;;-0.41;100.00
62418;BME280;48456;54.242;10.280;2022-12-07T05:33:58;100824.09;;;-0.40;100.00
62418;BME280;48456;54.242;10.280;2022-12-07T05:36:24;100824.97;;;-0.40;100.00
62418;BME280;48456;54.242;10.280;2022-12-07T05:38:50;100824.97;;;-0.40;100.00
62418;BME280;48456;54.242;10.280;2022-12-07T05:41:17;100832.19;;;-0.32;100.00
62418;BME280;48456;54.242;10.280;2022-12-07T05:44:03;100824.41;;;-0.32;100.00
62418;BME280;48456;54.242;10.280;2022-12-07T05:46:29;100822.63;;;-0.33;100.00
62418;BME280;48456;54.242;10.280;2022-12-07T05:48:55;100821.34;;;-0.43;100.00
62418;BME280;48456;54.242;10.280;2022-12-07T05:51:22;100816.09;;;-0.45;100.00
62418;BME280;48456;54.242;10.280;2022-12-07T05:53:48;100821.22;;;-0.46;100.00
62418;BME280;48456;54.242;10.280;2022-12-07T05:56:14;100819.47;;;-0.47;100.00
62418;BME280;48456;54.242;10.280;2022-12-07T05:58:41;100814.25;;;-0.47;100.00
62418;BME280;48456;54.242;10.280;2022-12-07T06:01:26;100812.41;;;-0.50;100.00
62418;BME280;48456;54.242;10.280;2022-12-07T06:03:52;100804.34;;;-0.56;100.00
62418;BME280;48456;54.242;10.280;2022-12-07T06:06:18;100816.28;;;-0.61;100.00
62418;BME280;48456;54.242;10.280;2022-12-07T06:08:45;100817.03;;;-0.64;100.00
62418;BME280;48456;54.242;10.280;2022-12-07T06:11:11;100809.19;;;-0.66;100.00
62418;BME280;48456;54.242;10.280;2022-12-07T06:13:56;100812.59;;;-0.67;100.00
62418;BME280;48456;54.242;10.280;2022-12-07T06:16:22;100803.06;;;-0.68;100.00
62418;BME280;48456;54.242;10.280;2022-12-07T06:18:49;100805.50;;;-0.71;100.00
62418;BME280;48456;54.242;10.280;2022-12-07T06:21:15;100807.03;;;-0.76;100.00
62418;BME280;48456;54.242;10.280;2022-12-07T06:23:41;100816.28;;;-0.83;100.00
62418;BME280;48456;54.242;10.280;2022-12-07T06:26:07;100808.41;;;-0.84;100.00
62418;BME280;48456;54.242;10.280;2022-12-07T06:28:34;100805.75;;;-0.86;100.00
62418;BME280;48456;54.242;10.280;2022-12-07T06:31:00;100806.44;;;-0.90;100.00
62418;BME280;48456;54.242;10.280;2022-12-07T06:33:27;100800.09;;;-0.97;100.00
62418;BME280;48456;54.242;10.280;2022-12-07T06:35:54;100802.41;;;-1.03;100.00
62418;BME280;48456;54.242;10.280;2022-12-07T06:38:20;100806.47;;;-1.10;100.00
62418;BME280;48456;54.242;10.280;2022-12-07T06:40:46;100802.72;;;-1.16;100.00
62418;BME280;48456;54.242;10.280;2022-12-07T06:43:14;100805.94;;;-1.22;100.00
62418;BME280;48456;54.242;10.280;2022-12-07T06:45:43;100810.03;;;-1.27;100.00
62418;BME280;48456;54.242;10.280;2022-12-07T06:48:10;100809.72;;;-1.35;100.00
62418;BME280;48456;54.242;10.280;2022-12-07T06:50:36;100812.16;;;-1.38;100.00
62418;BME280;48456;54.242;10.280;2022-12-07T06:53:02;100814.53;;;-1.43;100.00
62418;BME280;48456;54.242;10.280;2022-12-07T06:55:29;100817.88;;;-1.46;100.00
62418;BME280;48456;54.242;10.280;2022-12-07T06:57:55;100811.59;;;-1.51;100.00
62418;BME280;48456;54.242;10.280;2022-12-07T07:00:21;100817.63;;;-1.52;100.00
62418;BME280;48456;54.242;10.280;2022-12-07T07:02:48;100810.59;;;-1.54;100.00
62418;BME280;48456;54.242;10.280;2022-12-07T07:05:14;100823.56;;;-1.54;100.00
62418;BME280;48456;54.242;10.280;2022-12-07T07:07:41;100814.88;;;-1.55;100.00
62418;BME280;48456;54.242;10.280;2022-12-07T07:10:28;100812.28;;;-1.55;100.00
62418;BME280;48456;54.242;10.280;2022-12-07T07:12:54;100812.28;;;-1.55;100.00
62418;BME280;48456;54.242;10.280;2022-12-07T07:15:22;100813.09;;;-1.56;100.00
62418;BME280;48456;54.242;10.280;2022-12-07T07:17:52;100815.69;;;-1.56;100.00
62418;BME280;48456;54.242;10.280;2022-12-07T07:20:18;100816.53;;;-1.57;100.00
62418;BME280;48456;54.242;10.280;2022-12-07T07:22:44;100818.16;;;-1.59;100.00
62418;BME280;48456;54.242;10.280;2022-12-07T07:25:11;100815.56;;;-1.59;100.00
62418;BME280;48456;54.242;10.280;2022-12-07T07:27:37;100809.50;;;-1.60;100.00
62418;BME280;48456;54.242;10.280;2022-12-07T07:30:04;100816.53;;;-1.57;100.00
62418;BME280;48456;54.242;10.280;2022-12-07T07:32:30;100819.03;;;-1.59;100.00
62418;BME280;48456;54.242;10.280;2022-12-07T07:34:57;100822.59;;;-1.57;100.00
62418;BME280;48456;54.242;10.280;2022-12-07T07:37:23;100821.72;;;-1.57;100.00
62418;BME280;48456;54.242;10.280;2022-12-07T07:39:49;100816.66;;;-1.54;100.00
62418;BME280;48456;54.242;10.280;2022-12-07T07:42:15;100820.22;;;-1.52;100.00
62418;BME280;48456;54.242;10.280;2022-12-07T07:44:42;100823.47;;;-1.56;100.00
62418;BME280;48456;54.242;10.280;2022-12-07T07:47:08;100826.84;;;-1.59;100.00
62418;BME280;48456;54.242;10.280;2022-12-07T07:49:34;100819.03;;;-1.59;100.00
62418;BME280;48456;54.242;10.280;2022-12-07T07:52:00;100829.56;;;-1.55;100.00
62418;BME280;48456;54.242;10.280;2022-12-07T07:54:27;100830.59;;;-1.52;100.00
62418;BME280;48456;54.242;10.280;2022-12-07T07:56:53;100830.06;;;-1.45;100.00
62418;BME280;48456;54.242;10.280;2022-12-07T07:59:19;100826.78;;;-1.40;100.00
62418;BME280;48456;54.242;10.280;2022-12-07T08:01:45;100829.63;;;-1.34;100.00
62418;BME280;48456;54.242;10.280;2022-12-07T08:04:12;100824.66;;;-1.29;100.00
62418;BME280;48456;54.242;10.280;2022-12-07T08:06:38;100837.81;;;-1.25;100.00
62418;BME280;48456;54.242;10.280;2022-12-07T08:09:04;100834.69;;;-1.18;100.00
62418;BME280;48456;54.242;10.280;2022-12-07T08:11:32;100836.59;;;-1.13;100.00
62418;BME280;48456;54.242;10.280;2022-12-07T08:13:58;100835.03;;;-1.10;100.00
62418;BME280;48456;54.242;10.280;2022-12-07T08:16:25;100839.47;;;-1.07;100.00
62418;BME280;48456;54.242;10.280;2022-12-07T08:18:51;100847.47;;;-1.02;100.00
62418;BME280;48456;54.242;10.280;2022-12-07T08:21:17;100851.13;;;-0.97;100.00
62418;BME280;48456;54.242;10.280;2022-12-07T08:23:44;100834.13;;;-0.90;100.00
62418;BME280;48456;54.242;10.280;2022-12-07T08:26:11;100829.28;;;-0.83;100.00
62418;BME280;48456;54.242;10.280;2022-12-07T08:28:38;100838.22;;;-0.76;100.00
62418;BME280;48456;54.242;10.280;2022-12-07T08:31:05;100832.44;;;-0.69;100.00
62418;BME280;48456;54.242;10.280;2022-12-07T08:33:33;100846.53;;;-0.63;100.00
62418;BME280;48456;54.242;10.280;2022-12-07T08:36:00;100838.84;;;-0.60;100.00
62418;BME280;48456;54.242;10.280;2022-12-07T08:38:26;100840.75;;;-0.56;100.00
62418;BME280;48456;54.242;10.280;2022-12-07T08:40:57;100845.16;;;-0.54;100.00
62418;BME280;48456;54.242;10.280;2022-12-07T08:43:24;100836.69;;;-0.49;100.00
62418;BME280;48456;54.242;10.280;2022-12-07T08:48:32;100833.72;;;-0.37;100.00
62418;BME280;48456;54.242;10.280;2022-12-07T08:50:59;100839.09;;;-0.33;100.00
62418;BME280;48456;54.242;10.280;2022-12-07T08:53:27;100838.31;;;-0.30;100.00
62418;BME280;48456;54.242;10.280;2022-12-07T08:55:54;100841.06;;;-0.27;100.00
62418;BME280;48456;54.242;10.280;2022-12-07T08:58:22;100840.28;;;-0.24;100.00
62418;BME280;48456;54.242;10.280;2022-12-07T09:00:48;100836.13;;;-0.21;100.00
62418;BME280;48456;54.242;10.280;2022-12-07T09:03:15;100835.41;;;-0.17;100.00
62418;BME280;48456;54.242;10.280;2022-12-07T09:05:41;100840.66;;;-0.15;100.00
62418;BME280;48456;54.242;10.280;2022-12-07T09:08:08;100843.44;;;-0.10;100.00
62418;BME280;48456;54.242;10.280;2022-12-07T09:10:35;100838.25;;;-0.10;100.00
62418;BME280;48456;54.242;10.280;2022-12-07T09:13:01;100840.97;;;-0.07;100.00
62418;BME280;48456;54.242;10.280;2022-12-07T09:15:28;100829.75;;;-0.06;100.00
62418;BME280;48456;54.242;10.280;2022-12-07T09:17:54;100823.72;;;-0.05;100.00
62418;BME280;48456;54.242;10.280;2022-12-07T09:20:21;100825.53;;;-0.03;100.00
62418;BME280;48456;54.242;10.280;2022-12-07T09:22:53;100822.19;;;0.00;100.00
62418;BME280;48456;54.242;10.280;2022-12-07T09:25:19;100822.31;;;0.03;100.00
62418;BME280;48456;54.242;10.280;2022-12-07T09:27:45;100818.88;;;0.04;100.00
62418;BME280;48456;54.242;10.280;2022-12-07T09:30:12;100818.22;;;0.10;100.00
62418;BME280;48456;54.242;10.280;2022-12-07T09:32:38;100810.41;;;0.10;100.00
62418;BME280;48456;54.242;10.280;2022-12-07T09:35:04;100816.66;;;0.14;100.00
62418;BME280;48456;54.242;10.280;2022-12-07T09:37:31;100809.78;;;0.16;100.00
62418;BME280;48456;54.242;10.280;2022-12-07T09:40:01;100814.91;;;0.14;100.00
62418;BME280;48456;54.242;10.280;2022-12-07T09:42:29;100826.34;;;0.18;100.00
62418;BME280;48456;54.242;10.280;2022-12-07T09:44:58;100820.44;;;0.22;100.00
62418;BME280;48456;54.242;10.280;2022-12-07T09:47:26;100817.00;;;0.23;100.00
62418;BME280;48456;54.242;10.280;2022-12-07T09:49:53;100811.91;;;0.26;100.00
62418;BME280;48456;54.242;10.280;2022-12-07T09:52:27;100819.88;;;0.31;100.00
62418;BME280;48456;54.242;10.280;2022-12-07T09:55:02;100818.25;;;0.33;100.00
62418;BME280;48456;54.242;10.280;2022-12-07T09:57:30;100811.28;;;0.33;100.00
62418;BME280;48456;54.242;10.280;2022-12-07T10:00:00;100815.72;;;0.36;100.00
62418;BME280;48456;54.242;10.280;2022-12-07T10:02:34;100811.53;;;0.40;100.00
62418;BME280;48456;54.242;10.280;2022-12-07T10:05:02;100801.00;;;0.36;100.00
62418;BME280;48456;54.242;10.280;2022-12-07T10:07:29;100798.47;;;0.38;100.00
62418;BME280;48456;54.242;10.280;2022-12-07T10:09:56;100799.53;;;0.43;100.00
62418;BME280;48456;54.242;10.280;2022-12-07T10:12:22;100804.84;;;0.46;100.00
62418;BME280;48456;54.242;10.280;2022-12-07T10:14:56;100803.19;;;0.48;100.00
62418;BME280;48456;54.242;10.280;2022-12-07T10:17:47;100801.41;;;0.47;100.00
62418;BME280;48456;54.242;10.280;2022-12-07T10:20:15;100805.97;;;0.53;100.00
62418;BME280;48456;54.242;10.280;2022-12-07T10:25:21;100799.06;;;0.55;100.00
62418;BME280;48456;54.242;10.280;2022-12-07T10:27:57;100796.47;;;0.55;100.00
62418;BME280;48456;54.242;10.280;2022-12-07T10:30:24;100799.25;;;0.60;100.00
62418;BME280;48456;54.242;10.280;2022-12-07T10:32:50;100800.25;;;0.63;100.00
62418;BME280;48456;54.242;10.280;2022-12-07T10:35:24;100801.09;;;0.62;100.00
62418;BME280;48456;54.242;10.280;2022-12-07T10:37:51;100799.50;;;0.66;100.00
62418;BME280;48456;54.242;10.280;2022-12-07T10:40:31;100800.38;;;0.67;100.00
62418;BME280;48456;54.242;10.280;2022-12-07T10:45:42;100790.28;;;0.76;100.00
62418;BME280;48456;54.242;10.280;2022-12-07T10:48:41;100786.13;;;0.81;100.00
62418;BME280;48456;54.242;10.280;2022-12-07T10:53:44;100789.78;;;0.86;100.00
62418;BME280;48456;54.242;10.280;2022-12-07T10:56:24;100786.47;;;0.90;100.00
62418;BME280;48456;54.242;10.280;2022-12-07T10:59:04;100787.44;;;0.94;100.00
62418;BME280;48456;54.242;10.280;2022-12-07T11:01:42;100784.16;;;1.00;100.00
62418;BME280;48456;54.242;10.280;2022-12-07T11:07:02;100788.75;;;1.07;100.00
62418;BME280;48456;54.242;10.280;2022-12-07T11:09:51;100783.69;;;1.12;100.00
62418;BME280;48456;54.242;10.280;2022-12-07T11:12:44;100781.16;;;1.13;100.00
62418;BME280;48456;54.242;10.280;2022-12-07T11:17:44;100772.03;;;1.26;100.00
62418;BME280;48456;54.242;10.280;2022-12-07T11:20:18;100774.94;;;1.36;100.00
62418;BME280;48456;54.242;10.280;2022-12-07T11:22:51;100773.25;;;1.38;100.00
62418;BME280;48456;54.242;10.280;2022-12-07T11:25:34;100771.59;;;1.40;100.00
62418;BME280;48456;54.242;10.280;2022-12-07T11:30:34;100765.59;;;1.42;100.00
62418;BME280;48456;54.242;10.280;2022-12-07T11:38:21;100755.16;;;1.42;100.00
62418;BME280;48456;54.242;10.280;2022-12-07T11:40:54;100743.03;;;1.43;100.00
62418;BME280;48456;54.242;10.280;2022-12-07T11:43:24;100748.28;;;1.45;100.00
62418;BME280;48456;54.242;10.280;2022-12-07T11:46:00;100732.59;;;1.43;100.00
62418;BME280;48456;54.242;10.280;2022-12-07T11:48:30;100740.50;;;1.46;100.00
62418;BME280;48456;54.242;10.280;2022-12-07T11:50:59;100735.09;;;1.40;100.00
62418;BME280;48456;54.242;10.280;2022-12-07T11:53:28;100739.63;;;1.46;100.00
62418;BME280;48456;54.242;10.280;2022-12-07T11:56:09;100732.69;;;1.46;100.00
62418;BME280;48456;54.242;10.280;2022-12-07T11:58:51;100732.63;;;1.45;100.00
62418;BME280;48456;54.242;10.280;2022-12-07T12:01:39;100740.78;;;1.55;100.00
62418;BME280;48456;54.242;10.280;2022-12-07T12:06:38;100729.94;;;1.69;100.00
62418;BME280;48456;54.242;10.280;2022-12-07T12:15:08;100720.94;;;1.88;100.00
62418;BME280;48456;54.242;10.280;2022-12-07T12:20:31;100724.38;;;1.87;100.00
62418;BME280;48456;54.242;10.280;2022-12-07T12:23:05;100727.59;;;1.78;100.00
62418;BME280;48456;54.242;10.280;2022-12-07T12:25:37;100729.25;;;1.75;100.00
62418;BME280;48456;54.242;10.280;2022-12-07T12:28:05;100729.31;;;1.78;100.00
62418;BME280;48456;54.242;10.280;2022-12-07T12:33:31;100729.03;;;1.68;100.00
62418;BME280;48456;54.242;10.280;2022-12-07T12:38:48;100734.31;;;1.70;100.00
62418;BME280;48456;54.242;10.280;2022-12-07T12:44:00;100738.56;;;1.66;100.00
62418;BME280;48456;54.242;10.280;2022-12-07T12:50:18;100737.53;;;1.63;100.00
62418;BME280;48456;54.242;10.280;2022-12-07T12:54:28;100742.63;;;1.58;100.00
62418;BME280;48456;54.242;10.280;2022-12-07T12:56:55;100735.72;;;1.60;100.00
62418;BME280;48456;54.242;10.280;2022-12-07T12:59:32;100746.06;;;1.57;100.00
62418;BME280;48456;54.242;10.280;2022-12-07T13:05:16;100735.22;;;1.43;100.00
62418;BME280;48456;54.242;10.280;2022-12-07T13:23:29;100751.44;;;1.08;100.00
62418;BME280;48456;54.242;10.280;2022-12-07T13:28:47;100758.97;;;0.99;100.00
62418;BME280;48456;54.242;10.280;2022-12-07T13:33:58;100764.41;;;0.81;100.00
62418;BME280;48456;54.242;10.280;2022-12-07T13:36:32;100751.94;;;0.72;100.00
62418;BME280;48456;54.242;10.280;2022-12-07T13:41:58;100763.78;;;0.62;100.00
62418;BME280;48456;54.242;10.280;2022-12-07T13:44:26;100754.88;;;0.57;100.00
62418;BME280;48456;54.242;10.280;2022-12-07T13:49:21;100761.88;;;0.58;100.00
62418;BME280;48456;54.242;10.280;2022-12-07T13:51:48;100768.69;;;0.54;100.00
62418;BME280;48456;54.242;10.280;2022-12-07T13:54:14;100771.06;;;0.48;100.00
62418;BME280;48456;54.242;10.280;2022-12-07T13:56:41;100766.59;;;0.44;100.00
62418;BME280;48456;54.242;10.280;2022-12-07T13:59:16;100762.94;;;0.38;100.00
62418;BME280;48456;54.242;10.280;2022-12-07T14:01:44;100774.88;;;0.33;100.00
62418;BME280;48456;54.242;10.280;2022-12-07T14:06:55;100768.91;;;0.13;100.00
62418;BME280;48456;54.242;10.280;2022-12-07T14:09:23;100771.25;;;0.05;100.00
62418;BME280;48456;54.242;10.280;2022-12-07T14:11:52;100769.41;;;0.03;100.00
62418;BME280;48456;54.242;10.280;2022-12-07T14:14:23;100773.53;;;-0.03;100.00
62418;BME280;48456;54.242;10.280;2022-12-07T14:16:56;100770.72;;;-0.09;100.00
62418;BME280;48456;54.242;10.280;2022-12-07T14:22:21;100782.81;;;-0.09;100.00
62418;BME280;48456;54.242;10.280;2022-12-07T14:24:48;100771.53;;;-0.10;100.00
62418;BME280;48456;54.242;10.280;2022-12-07T14:27:22;100773.25;;;-0.10;100.00
62418;BME280;48456;54.242;10.280;2022-12-07T14:29:51;100772.41;;;-0.09;100.00
62418;BME280;48456;54.242;10.280;2022-12-07T14:37:21;100782.59;;;-0.16;100.00